Terminal Aerodrome Forecast
Issued by NWS

Home | Current Version | Previous Version | Graphics & Text | Print | Product List | Glossary Off
Versions: 1 2 3 4 5 6 7 8 9 10 11 12 13 14 15 16 17 18 19 20 21 22 23 24 25 26 27 28 29 30 31 32 33 34 35 36 37 38

633
FTUS43 KGRB 271909 AAA
TAFRHI
TAF AMD
KRHI 271909Z 2719/2818 24009G17KT P6SM SCT050 BKN110
     FM280600 VRB03KT P6SM VCSH BKN040
     FM281100 VRB03KT P6SM -SHRA OVC040
     FM281400 23003KT P6SM -SHRA BKN080
      TEMPO 2814/2818 4SM -SHRA OVC025=

USA.gov is the U.S. government's official web portal to all federal, state and local government web resources and services.